EFW811N LPPR-EGKK
Flight info
| Callsign | EFW811N |
|---|---|
| Flight time | 1h 50m |
| Altitude | 34000 |
| Route | TURON P600 ASDEB DCT KORUL DCT FEJAC DCT JSY DCT REVTU/N0422F280 UP88 ODREP/N0399F240 P88 VASUX |
| Aircraft | A321/M-SDE3FGHIRWY/LB1 |
Departure
| Time | 2026-05-05 20:16 |
|---|---|
| Airport | Francisco de Sá Carneiro Airport (LPPR) |
Arrival
| Time | 2026-05-05 22:06 |
|---|---|
| Airport | London Gatwick Airport (EGKK) |
| Time | Latitude | Longitude | Altitude | Speed | Heading |
|---|---|---|---|---|---|
| 2026-05-05 19:24 | 41.23831 | -8.67385 | 245 ft | 0 kts | 79° |
| 2026-05-05 20:08 | 41.23831 | -8.67386 | 244 ft | 1 kts | 79° |
| 2026-05-05 20:08 | 41.23827 | -8.67418 | 243 ft | 4 kts | 88° |
| 2026-05-05 20:09 | 41.23829 | -8.67453 | 241 ft | 4 kts | 108° |
| 2026-05-05 20:09 | 41.23842 | -8.67479 | 239 ft | 4 kts | 160° |
| 2026-05-05 20:09 | 41.23846 | -8.67481 | 239 ft | 0 kts | 169° |
| 2026-05-05 20:12 | 41.23836 | -8.67479 | 239 ft | 6 kts | 169° |
| 2026-05-05 20:12 | 41.23783 | -8.67465 | 239 ft | 9 kts | 168° |
| 2026-05-05 20:12 | 41.23716 | -8.67447 | 238 ft | 11 kts | 169° |
| 2026-05-05 20:12 | 41.23639 | -8.67427 | 238 ft | 12 kts | 169° |
| 2026-05-05 20:13 | 41.23555 | -8.67405 | 239 ft | 12 kts | 169° |
| 2026-05-05 20:13 | 41.23471 | -8.67383 | 240 ft | 13 kts | 169° |
| 2026-05-05 20:13 | 41.23383 | -8.67364 | 239 ft | 13 kts | 182° |
| 2026-05-05 20:13 | 41.23337 | -8.67408 | 236 ft | 4 kts | 251° |
| 2026-05-05 20:14 | 41.23328 | -8.67464 | 239 ft | 8 kts | 259° |
| 2026-05-05 20:14 | 41.23316 | -8.67541 | 235 ft | 9 kts | 259° |
| 2026-05-05 20:14 | 41.23302 | -8.67639 | 241 ft | 11 kts | 259° |
| 2026-05-05 20:14 | 41.23310 | -8.67726 | 238 ft | 9 kts | 317° |
| 2026-05-05 20:15 | 41.23387 | -8.67753 | 238 ft | 22 kts | 349° |
| 2026-05-05 20:15 | 41.23795 | -8.67860 | 225 ft | 96 kts | 348° |
| 2026-05-05 20:15 | 41.24669 | -8.68090 | 204 ft | 156 kts | 348° |
| 2026-05-05 20:15 | 41.25828 | -8.68383 | 592 ft | 173 kts | 349° |
| 2026-05-05 20:16 | 41.27014 | -8.68680 | 1364 ft | 174 kts | 348° |
| 2026-05-05 20:16 | 41.28240 | -8.68991 | 1851 ft | 187 kts | 347° |
| 2026-05-05 20:16 | 41.29579 | -8.69346 | 2111 ft | 207 kts | 347° |
| 2026-05-05 20:16 | 41.31079 | -8.69751 | 2369 ft | 232 kts | 348° |
| 2026-05-05 20:17 | 41.32712 | -8.70192 | 2932 ft | 243 kts | 348° |
| 2026-05-05 20:17 | 41.34384 | -8.70639 | 3693 ft | 247 kts | 348° |
| 2026-05-05 20:17 | 41.36084 | -8.71092 | 4438 ft | 251 kts | 348° |
| 2026-05-05 20:17 | 41.37806 | -8.71549 | 5210 ft | 254 kts | 348° |
| 2026-05-05 20:18 | 41.39548 | -8.71975 | 5985 ft | 255 kts | 354° |
| 2026-05-05 20:18 | 41.41324 | -8.71801 | 6720 ft | 259 kts | 7° |
| 2026-05-05 20:18 | 41.43086 | -8.71401 | 7413 ft | 262 kts | 8° |
| 2026-05-05 20:18 | 41.44892 | -8.70977 | 8117 ft | 265 kts | 8° |
| 2026-05-05 20:19 | 41.46720 | -8.70545 | 8818 ft | 269 kts | 8° |
| 2026-05-05 20:19 | 41.48569 | -8.70110 | 9529 ft | 272 kts | 8° |
| 2026-05-05 20:19 | 41.50467 | -8.69662 | 10224 ft | 275 kts | 8° |
| 2026-05-05 20:19 | 41.52384 | -8.69212 | 10447 ft | 295 kts | 8° |
| 2026-05-05 20:20 | 41.54482 | -8.68721 | 10583 ft | 316 kts | 8° |
| 2026-05-05 20:20 | 41.56710 | -8.68201 | 10799 ft | 332 kts | 8° |
| 2026-05-05 20:20 | 41.59007 | -8.67663 | 11319 ft | 338 kts | 8° |
| 2026-05-05 20:20 | 41.61333 | -8.67116 | 11913 ft | 341 kts | 8° |
| 2026-05-05 20:21 | 41.63684 | -8.66563 | 12520 ft | 344 kts | 8° |
| 2026-05-05 20:21 | 41.66055 | -8.66005 | 13120 ft | 347 kts | 8° |
| 2026-05-05 20:21 | 41.68442 | -8.65444 | 13717 ft | 351 kts | 8° |
| 2026-05-05 20:21 | 41.70860 | -8.64879 | 14270 ft | 354 kts | 8° |
| 2026-05-05 20:22 | 41.73292 | -8.64307 | 14813 ft | 356 kts | 7° |
| 2026-05-05 20:22 | 41.75743 | -8.63728 | 15357 ft | 359 kts | 7° |
| 2026-05-05 20:22 | 41.78208 | -8.63142 | 15900 ft | 361 kts | 7° |
| 2026-05-05 20:22 | 41.80692 | -8.62553 | 16428 ft | 364 kts | 7° |
| 2026-05-05 20:23 | 41.83191 | -8.61961 | 16975 ft | 366 kts | 7° |
| 2026-05-05 20:23 | 41.85709 | -8.61365 | 17492 ft | 369 kts | 7° |
| 2026-05-05 20:23 | 41.88243 | -8.60767 | 18022 ft | 371 kts | 7° |
| 2026-05-05 20:23 | 41.90789 | -8.60163 | 18517 ft | 373 kts | 7° |
| 2026-05-05 20:24 | 41.93352 | -8.59552 | 18934 ft | 375 kts | 7° |
| 2026-05-05 20:24 | 41.95933 | -8.58935 | 19344 ft | 378 kts | 6° |
| 2026-05-05 20:24 | 41.98536 | -8.58312 | 19771 ft | 381 kts | 6° |
| 2026-05-05 20:24 | 42.01156 | -8.57688 | 20191 ft | 384 kts | 6° |
| 2026-05-05 20:25 | 42.03789 | -8.57065 | 20584 ft | 386 kts | 6° |
| 2026-05-05 20:25 | 42.06446 | -8.56436 | 20967 ft | 389 kts | 6° |
| 2026-05-05 20:25 | 42.09125 | -8.55871 | 21375 ft | 391 kts | 4° |
| 2026-05-05 20:25 | 42.11825 | -8.55411 | 21784 ft | 392 kts | 3° |
| 2026-05-05 20:26 | 42.14547 | -8.55009 | 22188 ft | 394 kts | 2° |
| 2026-05-05 20:26 | 42.17285 | -8.54627 | 22578 ft | 397 kts | 2° |
| 2026-05-05 20:26 | 42.20039 | -8.54237 | 22956 ft | 399 kts | 2° |
| 2026-05-05 20:26 | 42.22812 | -8.53822 | 23334 ft | 402 kts | 2° |
| 2026-05-05 20:27 | 42.25604 | -8.53387 | 23672 ft | 405 kts | 2° |
| 2026-05-05 20:27 | 42.28410 | -8.52938 | 23984 ft | 408 kts | 2° |
| 2026-05-05 20:27 | 42.31231 | -8.52479 | 24315 ft | 410 kts | 2° |
| 2026-05-05 20:27 | 42.34066 | -8.52016 | 24650 ft | 411 kts | 2° |
| 2026-05-05 20:28 | 42.36914 | -8.51555 | 24980 ft | 413 kts | 2° |
| 2026-05-05 20:28 | 42.39776 | -8.51093 | 25308 ft | 415 kts | 2° |
| 2026-05-05 20:28 | 42.42651 | -8.50630 | 25627 ft | 417 kts | 2° |
| 2026-05-05 20:28 | 42.45546 | -8.50165 | 25932 ft | 419 kts | 2° |
| 2026-05-05 20:29 | 42.48450 | -8.49700 | 26241 ft | 422 kts | 2° |
| 2026-05-05 20:29 | 42.51353 | -8.48956 | 26524 ft | 429 kts | 11° |
| 2026-05-05 20:29 | 42.54169 | -8.47531 | 26818 ft | 437 kts | 21° |
| 2026-05-05 20:29 | 42.56916 | -8.45731 | 27110 ft | 439 kts | 21° |
| 2026-05-05 20:30 | 42.59677 | -8.43923 | 27394 ft | 441 kts | 21° |
| 2026-05-05 20:30 | 42.62449 | -8.42116 | 27689 ft | 443 kts | 21° |
| 2026-05-05 20:30 | 42.65200 | -8.40329 | 27968 ft | 445 kts | 21° |
| 2026-05-05 20:30 | 42.68039 | -8.38486 | 28271 ft | 448 kts | 21° |
| 2026-05-05 20:31 | 42.70855 | -8.36652 | 28560 ft | 450 kts | 21° |
| 2026-05-05 20:31 | 42.73680 | -8.34803 | 28869 ft | 451 kts | 21° |
| 2026-05-05 20:31 | 42.76509 | -8.32948 | 29175 ft | 452 kts | 21° |
| 2026-05-05 20:31 | 42.79341 | -8.31089 | 29427 ft | 453 kts | 21° |
| 2026-05-05 20:32 | 42.82149 | -8.29247 | 29675 ft | 454 kts | 21° |
| 2026-05-05 20:32 | 42.84993 | -8.27383 | 29957 ft | 454 kts | 21° |
| 2026-05-05 20:32 | 42.87836 | -8.25516 | 30251 ft | 453 kts | 21° |
| 2026-05-05 20:32 | 42.90678 | -8.23645 | 30496 ft | 453 kts | 21° |
| 2026-05-05 20:33 | 42.93516 | -8.21771 | 30749 ft | 453 kts | 21° |
| 2026-05-05 20:33 | 42.96353 | -8.19896 | 30998 ft | 453 kts | 21° |
| 2026-05-05 20:33 | 42.99187 | -8.18022 | 31267 ft | 452 kts | 21° |
| 2026-05-05 20:33 | 43.02018 | -8.16150 | 31519 ft | 452 kts | 21° |
| 2026-05-05 20:34 | 43.04851 | -8.14280 | 31754 ft | 452 kts | 21° |
| 2026-05-05 20:34 | 43.07683 | -8.12410 | 32000 ft | 452 kts | 21° |
| 2026-05-05 20:34 | 43.10512 | -8.10537 | 32233 ft | 452 kts | 21° |
| 2026-05-05 20:34 | 43.13342 | -8.08658 | 32471 ft | 452 kts | 21° |
| 2026-05-05 20:35 | 43.16169 | -8.06775 | 32730 ft | 451 kts | 21° |
| 2026-05-05 20:35 | 43.18984 | -8.04901 | 33032 ft | 449 kts | 21° |
| 2026-05-05 20:35 | 43.21794 | -8.03028 | 33283 ft | 449 kts | 21° |
| 2026-05-05 20:35 | 43.24605 | -8.01152 | 33509 ft | 449 kts | 21° |
| 2026-05-05 20:36 | 43.26499 | -7.99886 | 33660 ft | 449 kts | 21° |
| 2026-05-05 20:36 | 43.29308 | -7.98012 | 33899 ft | 449 kts | 21° |
| 2026-05-05 20:36 | 43.32115 | -7.96142 | 34070 ft | 449 kts | 21° |
| 2026-05-05 20:37 | 43.37697 | -7.92419 | 34112 ft | 443 kts | 21° |
| 2026-05-05 20:37 | 43.43209 | -7.88714 | 34100 ft | 440 kts | 21° |
| 2026-05-05 20:38 | 43.48707 | -7.85015 | 34090 ft | 440 kts | 21° |
| 2026-05-05 20:38 | 43.54162 | -7.81338 | 34087 ft | 440 kts | 21° |
| 2026-05-05 20:39 | 43.59695 | -7.77612 | 34119 ft | 439 kts | 21° |
| 2026-05-05 20:39 | 43.65150 | -7.73934 | 34111 ft | 439 kts | 21° |
| 2026-05-05 20:40 | 43.70623 | -7.70223 | 34119 ft | 438 kts | 21° |
| 2026-05-05 20:40 | 43.76099 | -7.66501 | 34119 ft | 438 kts | 21° |
| 2026-05-05 20:41 | 43.81566 | -7.62778 | 34127 ft | 437 kts | 21° |
| 2026-05-05 20:41 | 43.87014 | -7.59062 | 34116 ft | 436 kts | 21° |
| 2026-05-05 20:42 | 43.92441 | -7.55353 | 34102 ft | 435 kts | 21° |
| 2026-05-05 20:42 | 43.97866 | -7.51645 | 34108 ft | 435 kts | 21° |
| 2026-05-05 20:43 | 44.03286 | -7.47932 | 34109 ft | 434 kts | 22° |
| 2026-05-05 20:43 | 44.08704 | -7.44212 | 34106 ft | 434 kts | 22° |
| 2026-05-05 20:44 | 44.14114 | -7.40484 | 34101 ft | 434 kts | 22° |
| 2026-05-05 20:44 | 44.19517 | -7.36746 | 34116 ft | 433 kts | 23° |
| 2026-05-05 20:45 | 44.27614 | -7.31149 | 34105 ft | 433 kts | 23° |
| 2026-05-05 20:45 | 44.33007 | -7.27408 | 34092 ft | 433 kts | 23° |
| 2026-05-05 20:46 | 44.38400 | -7.23659 | 34096 ft | 433 kts | 23° |
| 2026-05-05 20:46 | 44.43790 | -7.19907 | 34114 ft | 433 kts | 24° |
| 2026-05-05 20:47 | 44.49181 | -7.16141 | 34106 ft | 433 kts | 24° |
| 2026-05-05 20:47 | 44.54575 | -7.12376 | 34098 ft | 433 kts | 24° |
| 2026-05-05 20:48 | 44.59964 | -7.08598 | 34092 ft | 433 kts | 24° |
| 2026-05-05 20:48 | 44.65346 | -7.04807 | 34090 ft | 433 kts | 24° |
| 2026-05-05 20:49 | 44.70727 | -7.01017 | 34088 ft | 432 kts | 24° |
| 2026-05-05 20:49 | 44.76102 | -6.97218 | 34083 ft | 433 kts | 24° |
| 2026-05-05 20:50 | 44.81479 | -6.93405 | 34088 ft | 433 kts | 24° |
| 2026-05-05 20:50 | 44.86553 | -6.88911 | 34086 ft | 436 kts | 33° |
| 2026-05-05 20:51 | 44.91485 | -6.83930 | 34095 ft | 436 kts | 33° |
| 2026-05-05 20:51 | 44.96434 | -6.78953 | 34078 ft | 437 kts | 33° |
| 2026-05-05 20:52 | 45.01385 | -6.73949 | 34072 ft | 438 kts | 33° |
| 2026-05-05 20:52 | 45.06330 | -6.68933 | 34075 ft | 437 kts | 34° |
| 2026-05-05 20:53 | 45.11272 | -6.63905 | 34068 ft | 438 kts | 34° |
| 2026-05-05 20:53 | 45.16212 | -6.58858 | 34134 ft | 440 kts | 34° |
| 2026-05-05 20:54 | 45.18694 | -6.56319 | 34305 ft | 441 kts | 34° |
| 2026-05-05 20:54 | 45.21179 | -6.53778 | 34523 ft | 440 kts | 34° |
| 2026-05-05 20:54 | 45.23654 | -6.51251 | 34756 ft | 438 kts | 34° |
| 2026-05-05 20:54 | 45.26126 | -6.48725 | 34953 ft | 438 kts | 34° |
| 2026-05-05 20:55 | 45.28597 | -6.46193 | 35112 ft | 438 kts | 34° |
| 2026-05-05 20:55 | 45.31063 | -6.43658 | 35276 ft | 438 kts | 34° |
| 2026-05-05 20:55 | 45.33536 | -6.41110 | 35438 ft | 439 kts | 34° |
| 2026-05-05 20:55 | 45.36012 | -6.38562 | 35596 ft | 440 kts | 34° |
| 2026-05-05 20:56 | 45.38492 | -6.36011 | 35735 ft | 440 kts | 34° |
| 2026-05-05 20:56 | 45.40975 | -6.33452 | 35908 ft | 441 kts | 34° |
| 2026-05-05 20:56 | 45.43454 | -6.30890 | 36011 ft | 441 kts | 34° |
| 2026-05-05 20:56 | 45.45938 | -6.28316 | 36044 ft | 441 kts | 34° |
| 2026-05-05 20:57 | 45.50901 | -6.23163 | 36047 ft | 441 kts | 34° |
| 2026-05-05 20:57 | 45.55875 | -6.18025 | 36034 ft | 442 kts | 34° |
| 2026-05-05 20:58 | 45.60851 | -6.12862 | 36036 ft | 442 kts | 34° |
| 2026-05-05 20:58 | 45.65804 | -6.07692 | 36037 ft | 440 kts | 35° |
| 2026-05-05 20:59 | 45.70748 | -6.02516 | 36043 ft | 440 kts | 35° |
| 2026-05-05 20:59 | 45.75697 | -5.97345 | 36046 ft | 441 kts | 35° |
| 2026-05-05 21:00 | 45.80646 | -5.92151 | 36044 ft | 441 kts | 35° |
| 2026-05-05 21:00 | 45.85558 | -5.86987 | 36054 ft | 441 kts | 35° |
| 2026-05-05 21:01 | 45.90530 | -5.81740 | 36050 ft | 440 kts | 35° |
| 2026-05-05 21:01 | 45.95462 | -5.76529 | 36047 ft | 440 kts | 35° |
| 2026-05-05 21:02 | 46.00393 | -5.71312 | 36047 ft | 440 kts | 35° |
| 2026-05-05 21:02 | 46.05284 | -5.66122 | 36039 ft | 440 kts | 35° |
| 2026-05-05 21:03 | 46.10205 | -5.60895 | 36042 ft | 439 kts | 35° |
| 2026-05-05 21:03 | 46.15108 | -5.55662 | 36044 ft | 438 kts | 35° |
| 2026-05-05 21:04 | 46.19993 | -5.50452 | 36035 ft | 438 kts | 35° |
| 2026-05-05 21:04 | 46.24892 | -5.45209 | 36033 ft | 438 kts | 36° |
| 2026-05-05 21:05 | 46.29791 | -5.39954 | 36028 ft | 438 kts | 36° |
| 2026-05-05 21:05 | 46.34687 | -5.34686 | 36030 ft | 439 kts | 36° |
| 2026-05-05 21:06 | 46.39581 | -5.29402 | 36024 ft | 439 kts | 36° |
| 2026-05-05 21:06 | 46.44474 | -5.24113 | 36026 ft | 439 kts | 36° |
| 2026-05-05 21:07 | 46.49364 | -5.18811 | 36022 ft | 439 kts | 36° |
| 2026-05-05 21:07 | 46.54259 | -5.13490 | 36022 ft | 440 kts | 36° |
| 2026-05-05 21:08 | 46.59159 | -5.08170 | 36018 ft | 440 kts | 36° |
| 2026-05-05 21:08 | 46.64056 | -5.02819 | 36021 ft | 440 kts | 36° |
| 2026-05-05 21:09 | 46.68950 | -4.97465 | 36015 ft | 440 kts | 36° |
| 2026-05-05 21:09 | 46.73845 | -4.92110 | 36021 ft | 440 kts | 36° |
| 2026-05-05 21:10 | 46.78744 | -4.86752 | 36019 ft | 440 kts | 36° |
| 2026-05-05 21:10 | 46.83637 | -4.81376 | 36017 ft | 441 kts | 36° |
| 2026-05-05 21:11 | 46.88533 | -4.75979 | 36021 ft | 441 kts | 36° |
| 2026-05-05 21:11 | 46.93424 | -4.70560 | 36020 ft | 441 kts | 36° |
| 2026-05-05 21:12 | 46.98310 | -4.65132 | 36023 ft | 441 kts | 36° |
| 2026-05-05 21:12 | 47.03129 | -4.59783 | 36020 ft | 441 kts | 36° |
| 2026-05-05 21:13 | 47.08025 | -4.54343 | 36020 ft | 441 kts | 36° |
| 2026-05-05 21:13 | 47.12911 | -4.48887 | 36023 ft | 441 kts | 37° |
| 2026-05-05 21:14 | 47.17759 | -4.43451 | 36022 ft | 441 kts | 36° |
| 2026-05-05 21:14 | 47.22635 | -4.37983 | 36021 ft | 441 kts | 36° |
| 2026-05-05 21:15 | 47.27512 | -4.32502 | 36021 ft | 441 kts | 37° |
| 2026-05-05 21:15 | 47.32381 | -4.27007 | 36022 ft | 441 kts | 37° |
| 2026-05-05 21:16 | 47.37242 | -4.21508 | 36025 ft | 440 kts | 37° |
| 2026-05-05 21:16 | 47.42098 | -4.16015 | 36029 ft | 440 kts | 37° |
| 2026-05-05 21:17 | 47.46947 | -4.10511 | 36020 ft | 440 kts | 37° |
| 2026-05-05 21:17 | 47.51796 | -4.04991 | 36016 ft | 440 kts | 37° |
| 2026-05-05 21:18 | 47.56637 | -3.99474 | 36014 ft | 440 kts | 37° |
| 2026-05-05 21:18 | 47.61485 | -3.93943 | 36014 ft | 440 kts | 37° |
| 2026-05-05 21:19 | 47.66326 | -3.88396 | 36015 ft | 440 kts | 37° |
| 2026-05-05 21:19 | 47.71165 | -3.82827 | 36004 ft | 440 kts | 37° |
| 2026-05-05 21:20 | 47.76003 | -3.77251 | 36012 ft | 440 kts | 37° |
| 2026-05-05 21:20 | 47.80851 | -3.71662 | 35989 ft | 441 kts | 37° |
| 2026-05-05 21:21 | 47.84883 | -3.67003 | 35996 ft | 442 kts | 37° |
| 2026-05-05 21:21 | 47.89740 | -3.61376 | 35997 ft | 442 kts | 37° |
| 2026-05-05 21:22 | 47.94596 | -3.55727 | 35997 ft | 443 kts | 37° |
| 2026-05-05 21:22 | 47.99452 | -3.50066 | 35989 ft | 443 kts | 37° |
| 2026-05-05 21:23 | 48.04312 | -3.44396 | 35996 ft | 444 kts | 37° |
| 2026-05-05 21:23 | 48.09174 | -3.38700 | 36001 ft | 444 kts | 38° |
| 2026-05-05 21:24 | 48.14038 | -3.32988 | 36002 ft | 445 kts | 38° |
| 2026-05-05 21:24 | 48.18909 | -3.27255 | 36000 ft | 445 kts | 38° |
| 2026-05-05 21:25 | 48.23776 | -3.21514 | 35991 ft | 445 kts | 38° |
| 2026-05-05 21:25 | 48.28645 | -3.15766 | 36002 ft | 445 kts | 38° |
| 2026-05-05 21:26 | 48.33509 | -3.09986 | 36005 ft | 446 kts | 38° |
| 2026-05-05 21:26 | 48.38370 | -3.04200 | 36001 ft | 446 kts | 38° |
| 2026-05-05 21:27 | 48.43241 | -2.98405 | 35997 ft | 446 kts | 38° |
| 2026-05-05 21:27 | 48.48113 | -2.92600 | 35988 ft | 447 kts | 38° |
| 2026-05-05 21:28 | 48.52986 | -2.86761 | 35998 ft | 447 kts | 38° |
| 2026-05-05 21:28 | 48.57858 | -2.80901 | 35999 ft | 448 kts | 38° |
| 2026-05-05 21:29 | 48.62732 | -2.75043 | 35993 ft | 448 kts | 38° |
| 2026-05-05 21:29 | 48.67585 | -2.69190 | 35994 ft | 448 kts | 38° |
| 2026-05-05 21:30 | 48.72418 | -2.63339 | 35991 ft | 448 kts | 38° |
| 2026-05-05 21:30 | 48.77318 | -2.57397 | 35978 ft | 448 kts | 38° |
| 2026-05-05 21:31 | 48.82201 | -2.51586 | 35981 ft | 450 kts | 37° |
| 2026-05-05 21:31 | 48.87180 | -2.45825 | 35981 ft | 450 kts | 37° |
| 2026-05-05 21:32 | 48.92152 | -2.40057 | 35985 ft | 450 kts | 37° |
| 2026-05-05 21:32 | 48.97114 | -2.34231 | 35995 ft | 450 kts | 38° |
| 2026-05-05 21:33 | 49.02062 | -2.28371 | 35984 ft | 450 kts | 38° |
| 2026-05-05 21:33 | 49.07012 | -2.22501 | 35983 ft | 451 kts | 37° |
| 2026-05-05 21:34 | 49.11970 | -2.16646 | 35994 ft | 451 kts | 38° |
| 2026-05-05 21:34 | 49.16937 | -2.10777 | 35992 ft | 452 kts | 38° |
| 2026-05-05 21:35 | 49.21920 | -2.04922 | 35987 ft | 452 kts | 34° |
| 2026-05-05 21:35 | 49.27377 | -2.00131 | 35981 ft | 453 kts | 29° |
| 2026-05-05 21:36 | 49.32895 | -1.95474 | 35984 ft | 453 kts | 29° |
| 2026-05-05 21:36 | 49.38416 | -1.90808 | 35985 ft | 453 kts | 29° |
| 2026-05-05 21:37 | 49.43931 | -1.86109 | 35989 ft | 454 kts | 29° |
| 2026-05-05 21:37 | 49.49448 | -1.81392 | 35981 ft | 454 kts | 29° |
| 2026-05-05 21:38 | 49.54963 | -1.76664 | 35994 ft | 454 kts | 29° |
| 2026-05-05 21:38 | 49.60548 | -1.72130 | 35999 ft | 454 kts | 21° |
| 2026-05-05 21:39 | 49.66496 | -1.68811 | 35987 ft | 455 kts | 20° |
| 2026-05-05 21:39 | 49.69474 | -1.67169 | 35763 ft | 453 kts | 20° |
| 2026-05-05 21:39 | 49.72443 | -1.65533 | 35511 ft | 452 kts | 20° |
| 2026-05-05 21:40 | 49.75399 | -1.63902 | 34915 ft | 451 kts | 20° |
| 2026-05-05 21:40 | 49.78356 | -1.62263 | 34228 ft | 452 kts | 20° |
| 2026-05-05 21:40 | 49.81323 | -1.60613 | 33308 ft | 455 kts | 20° |
| 2026-05-05 21:40 | 49.84308 | -1.58950 | 32495 ft | 455 kts | 20° |
| 2026-05-05 21:41 | 49.87286 | -1.57289 | 31608 ft | 456 kts | 20° |
| 2026-05-05 21:41 | 49.90268 | -1.55625 | 31000 ft | 452 kts | 20° |
| 2026-05-05 21:41 | 49.93205 | -1.53983 | 30475 ft | 446 kts | 20° |
| 2026-05-05 21:41 | 49.96114 | -1.52355 | 29906 ft | 442 kts | 20° |
| 2026-05-05 21:42 | 49.98990 | -1.50745 | 29327 ft | 437 kts | 20° |
| 2026-05-05 21:42 | 50.01839 | -1.49187 | 28810 ft | 430 kts | 19° |
| 2026-05-05 21:42 | 50.04662 | -1.47751 | 28261 ft | 425 kts | 18° |
| 2026-05-05 21:42 | 50.07464 | -1.46401 | 27751 ft | 419 kts | 17° |
| 2026-05-05 21:43 | 50.10240 | -1.45095 | 27230 ft | 413 kts | 17° |
| 2026-05-05 21:43 | 50.12974 | -1.43808 | 26720 ft | 408 kts | 17° |
| 2026-05-05 21:43 | 50.15671 | -1.42526 | 26221 ft | 403 kts | 17° |
| 2026-05-05 21:43 | 50.18307 | -1.41257 | 25730 ft | 398 kts | 17° |
| 2026-05-05 21:44 | 50.20899 | -1.39992 | 25259 ft | 394 kts | 17° |
| 2026-05-05 21:44 | 50.23500 | -1.38712 | 24784 ft | 389 kts | 17° |
| 2026-05-05 21:44 | 50.26071 | -1.37440 | 24323 ft | 386 kts | 17° |
| 2026-05-05 21:44 | 50.28617 | -1.36181 | 23871 ft | 381 kts | 17° |
| 2026-05-05 21:45 | 50.31132 | -1.34939 | 23395 ft | 377 kts | 17° |
| 2026-05-05 21:45 | 50.33617 | -1.33711 | 22934 ft | 372 kts | 17° |
| 2026-05-05 21:45 | 50.36064 | -1.32497 | 22522 ft | 365 kts | 17° |
| 2026-05-05 21:45 | 50.38461 | -1.31309 | 22122 ft | 359 kts | 17° |
| 2026-05-05 21:46 | 50.40832 | -1.30133 | 21728 ft | 356 kts | 17° |
| 2026-05-05 21:46 | 50.43190 | -1.28965 | 21326 ft | 355 kts | 17° |
| 2026-05-05 21:46 | 50.45542 | -1.27796 | 20925 ft | 354 kts | 17° |
| 2026-05-05 21:46 | 50.47885 | -1.26628 | 20518 ft | 352 kts | 18° |
| 2026-05-05 21:47 | 50.50119 | -1.25099 | 20085 ft | 350 kts | 28° |
| 2026-05-05 21:47 | 50.52142 | -1.22981 | 19669 ft | 349 kts | 38° |
| 2026-05-05 21:47 | 50.53993 | -1.20537 | 19250 ft | 347 kts | 39° |
| 2026-05-05 21:47 | 50.55833 | -1.18112 | 18837 ft | 344 kts | 39° |
| 2026-05-05 21:48 | 50.57668 | -1.15710 | 18387 ft | 342 kts | 39° |
| 2026-05-05 21:48 | 50.59347 | -1.13517 | 17957 ft | 339 kts | 39° |
| 2026-05-05 21:48 | 50.61153 | -1.11150 | 17518 ft | 337 kts | 39° |
| 2026-05-05 21:48 | 50.62948 | -1.08786 | 17080 ft | 335 kts | 39° |
| 2026-05-05 21:49 | 50.64725 | -1.06443 | 16644 ft | 332 kts | 39° |
| 2026-05-05 21:49 | 50.66394 | -1.03934 | 16187 ft | 332 kts | 49° |
| 2026-05-05 21:49 | 50.67851 | -1.01126 | 15766 ft | 330 kts | 50° |
| 2026-05-05 21:49 | 50.69298 | -0.98331 | 15337 ft | 328 kts | 50° |
| 2026-05-05 21:50 | 50.70733 | -0.95565 | 14888 ft | 326 kts | 50° |
| 2026-05-05 21:50 | 50.72164 | -0.92803 | 14458 ft | 324 kts | 50° |
| 2026-05-05 21:50 | 50.73583 | -0.90070 | 14015 ft | 321 kts | 50° |
| 2026-05-05 21:50 | 50.74963 | -0.87409 | 13575 ft | 319 kts | 50° |
| 2026-05-05 21:51 | 50.76366 | -0.84693 | 13312 ft | 308 kts | 50° |
| 2026-05-05 21:51 | 50.77701 | -0.82099 | 13026 ft | 301 kts | 50° |
| 2026-05-05 21:51 | 50.79003 | -0.79568 | 12960 ft | 296 kts | 50° |
| 2026-05-05 21:51 | 50.80271 | -0.76988 | 12967 ft | 298 kts | 56° |
| 2026-05-05 21:52 | 50.81663 | -0.70931 | 12676 ft | 303 kts | 78° |
| 2026-05-05 21:52 | 50.82037 | -0.67718 | 12373 ft | 298 kts | 78° |
| 2026-05-05 21:52 | 50.82414 | -0.64399 | 12117 ft | 297 kts | 78° |
| 2026-05-05 21:53 | 50.82776 | -0.61213 | 11876 ft | 296 kts | 78° |
| 2026-05-05 21:53 | 50.83142 | -0.58018 | 11631 ft | 294 kts | 78° |
| 2026-05-05 21:53 | 50.83507 | -0.54834 | 11390 ft | 293 kts | 78° |
| 2026-05-05 21:53 | 50.83871 | -0.51668 | 11143 ft | 292 kts | 78° |
| 2026-05-05 21:54 | 50.84235 | -0.48512 | 10893 ft | 291 kts | 78° |
| 2026-05-05 21:54 | 50.84597 | -0.45368 | 10640 ft | 290 kts | 78° |
| 2026-05-05 21:54 | 50.84956 | -0.42240 | 10300 ft | 288 kts | 77° |
| 2026-05-05 21:54 | 50.85313 | -0.39132 | 9927 ft | 286 kts | 77° |
| 2026-05-05 21:55 | 50.85667 | -0.36040 | 9491 ft | 285 kts | 77° |
| 2026-05-05 21:55 | 50.86014 | -0.33003 | 9077 ft | 283 kts | 77° |
| 2026-05-05 21:55 | 50.86368 | -0.29906 | 8647 ft | 282 kts | 77° |
| 2026-05-05 21:55 | 50.86710 | -0.26894 | 8244 ft | 281 kts | 77° |
| 2026-05-05 21:56 | 50.87051 | -0.23879 | 7977 ft | 275 kts | 78° |
| 2026-05-05 21:56 | 50.87579 | -0.20955 | 7971 ft | 273 kts | 59° |
| 2026-05-05 21:56 | 50.88799 | -0.18769 | 7975 ft | 270 kts | 32° |
| 2026-05-05 21:56 | 50.90531 | -0.17735 | 7951 ft | 268 kts | 6° |
| 2026-05-05 21:57 | 50.92361 | -0.18035 | 7670 ft | 267 kts | 345° |
| 2026-05-05 21:57 | 50.94119 | -0.18942 | 7427 ft | 262 kts | 341° |
| 2026-05-05 21:57 | 50.95820 | -0.19894 | 7177 ft | 256 kts | 341° |
| 2026-05-05 21:57 | 50.97481 | -0.20843 | 6928 ft | 251 kts | 339° |
| 2026-05-05 21:58 | 50.98901 | -0.22360 | 6683 ft | 248 kts | 311° |
| 2026-05-05 21:58 | 50.99625 | -0.24768 | 6468 ft | 244 kts | 281° |
| 2026-05-05 21:58 | 50.99729 | -0.27430 | 6286 ft | 242 kts | 272° |
| 2026-05-05 21:58 | 50.99724 | -0.30013 | 5999 ft | 241 kts | 271° |
| 2026-05-05 21:59 | 50.99707 | -0.32657 | 5634 ft | 240 kts | 271° |
| 2026-05-05 21:59 | 50.99691 | -0.35295 | 5272 ft | 239 kts | 271° |
| 2026-05-05 21:59 | 50.99673 | -0.37924 | 4916 ft | 238 kts | 271° |
| 2026-05-05 21:59 | 50.99664 | -0.40550 | 4552 ft | 237 kts | 274° |
| 2026-05-05 22:00 | 51.00113 | -0.42987 | 4183 ft | 229 kts | 305° |
| 2026-05-05 22:00 | 51.01257 | -0.44603 | 3917 ft | 217 kts | 332° |
| 2026-05-05 22:00 | 51.02567 | -0.45685 | 3694 ft | 208 kts | 335° |
| 2026-05-05 22:00 | 51.03840 | -0.46663 | 3499 ft | 198 kts | 336° |
| 2026-05-05 22:01 | 51.05045 | -0.47583 | 3352 ft | 188 kts | 336° |
| 2026-05-05 22:01 | 51.06286 | -0.47993 | 3195 ft | 183 kts | 9° |
| 2026-05-05 22:01 | 51.07410 | -0.47130 | 3096 ft | 181 kts | 37° |
| 2026-05-05 22:01 | 51.08387 | -0.45860 | 3012 ft | 181 kts | 40° |
| 2026-05-05 22:02 | 51.09349 | -0.44569 | 3013 ft | 181 kts | 40° |
| 2026-05-05 22:02 | 51.10302 | -0.43257 | 3012 ft | 181 kts | 41° |
| 2026-05-05 22:02 | 51.11241 | -0.41914 | 2944 ft | 183 kts | 47° |
| 2026-05-05 22:02 | 51.11861 | -0.40184 | 2711 ft | 181 kts | 72° |
| 2026-05-05 22:03 | 51.12139 | -0.38263 | 2479 ft | 175 kts | 77° |
| 2026-05-05 22:03 | 51.12399 | -0.36402 | 2247 ft | 169 kts | 77° |
| 2026-05-05 22:03 | 51.12646 | -0.34634 | 2042 ft | 159 kts | 77° |
| 2026-05-05 22:03 | 51.12882 | -0.32944 | 1817 ft | 155 kts | 77° |
| 2026-05-05 22:04 | 51.13112 | -0.31290 | 1602 ft | 149 kts | 77° |
| 2026-05-05 22:04 | 51.13329 | -0.29738 | 1396 ft | 139 kts | 77° |
| 2026-05-05 22:04 | 51.13536 | -0.28264 | 1197 ft | 136 kts | 77° |
| 2026-05-05 22:04 | 51.13741 | -0.26798 | 1019 ft | 136 kts | 77° |
| 2026-05-05 22:05 | 51.13936 | -0.25328 | 817 ft | 136 kts | 77° |
| 2026-05-05 22:05 | 51.14143 | -0.23881 | 658 ft | 136 kts | 76° |
| 2026-05-05 22:05 | 51.14345 | -0.22394 | 468 ft | 135 kts | 76° |
| 2026-05-05 22:05 | 51.14551 | -0.20925 | 282 ft | 136 kts | 76° |
| 2026-05-05 22:06 | 51.14747 | -0.19504 | 209 ft | 120 kts | 77° |
| 2026-05-05 22:06 | 51.14895 | -0.18450 | 202 ft | 73 kts | 77° |
| 2026-05-05 22:06 | 51.14975 | -0.17865 | 210 ft | 47 kts | 77° |
| 2026-05-05 22:06 | 51.15035 | -0.17448 | 212 ft | 27 kts | 72° |
| 2026-05-05 22:07 | 51.15110 | -0.17233 | 216 ft | 12 kts | 49° |
| 2026-05-05 22:07 | 51.15144 | -0.17207 | 208 ft | 3 kts | 0° |
| 2026-05-05 22:07 | 51.15181 | -0.17240 | 210 ft | 7 kts | 327° |
| 2026-05-05 22:07 | 51.15228 | -0.17293 | 209 ft | 9 kts | 325° |
| 2026-05-05 22:08 | 51.15290 | -0.17348 | 208 ft | 11 kts | 345° |
| 2026-05-05 22:08 | 51.15339 | -0.17356 | 208 ft | 11 kts | 15° |
| 2026-05-05 22:08 | 51.15375 | -0.17251 | 213 ft | 12 kts | 71° |
| 2026-05-05 22:08 | 51.15407 | -0.17120 | 211 ft | 13 kts | 71° |
| 2026-05-05 22:09 | 51.15429 | -0.16965 | 204 ft | 15 kts | 78° |
| 2026-05-05 22:09 | 51.15450 | -0.16813 | 211 ft | 12 kts | 77° |
| 2026-05-05 22:09 | 51.15446 | -0.16690 | 204 ft | 12 kts | 85° |
| 2026-05-05 22:09 | 51.15459 | -0.16586 | 205 ft | 6 kts | 78° |
| 2026-05-05 22:10 | 51.15482 | -0.16530 | 204 ft | 7 kts | 27° |
| 2026-05-05 22:10 | 51.15523 | -0.16530 | 207 ft | 4 kts | 349° |
| 2026-05-05 22:10 | 51.15538 | -0.16534 | 215 ft | 2 kts | 348° |
| 2026-05-05 22:10 | 51.15540 | -0.16535 | 204 ft | 0 kts | 348° |